sensor_id;sensor_type;location;lat;lon;timestamp;P1;durP1;ratioP1;P2;durP2;ratioP2
12910;SDS011;6523;49.758;6.120;2022-10-26T00:01:03;5.00;;;3.67;;
12910;SDS011;6523;49.758;6.120;2022-10-26T00:03:31;5.57;;;4.00;;
12910;SDS011;6523;49.758;6.120;2022-10-26T00:06:08;10.37;;;4.30;;
12910;SDS011;6523;49.758;6.120;2022-10-26T00:08:35;7.47;;;4.33;;
12910;SDS011;6523;49.758;6.120;2022-10-26T00:11:02;6.50;;;3.30;;
12910;SDS011;6523;49.758;6.120;2022-10-26T00:13:28;5.73;;;3.67;;
12910;SDS011;6523;49.758;6.120;2022-10-26T00:15:54;7.43;;;3.73;;
12910;SDS011;6523;49.758;6.120;2022-10-26T00:18:20;7.93;;;4.73;;
12910;SDS011;6523;49.758;6.120;2022-10-26T00:20:45;10.30;;;3.87;;
12910;SDS011;6523;49.758;6.120;2022-10-26T00:23:11;6.47;;;3.90;;
12910;SDS011;6523;49.758;6.120;2022-10-26T00:25:36;7.17;;;4.50;;
12910;SDS011;6523;49.758;6.120;2022-10-26T00:28:02;5.83;;;4.00;;
12910;SDS011;6523;49.758;6.120;2022-10-26T00:30:28;6.40;;;4.43;;
12910;SDS011;6523;49.758;6.120;2022-10-26T00:32:54;5.87;;;4.10;;
12910;SDS011;6523;49.758;6.120;2022-10-26T00:35:19;14.23;;;4.70;;
12910;SDS011;6523;49.758;6.120;2022-10-26T00:37:45;5.70;;;4.30;;
12910;SDS011;6523;49.758;6.120;2022-10-26T00:40:11;8.53;;;4.37;;
12910;SDS011;6523;49.758;6.120;2022-10-26T00:42:37;4.90;;;3.87;;
12910;SDS011;6523;49.758;6.120;2022-10-26T00:45:18;6.93;;;4.10;;
12910;SDS011;6523;49.758;6.120;2022-10-26T00:47:49;5.17;;;3.83;;
12910;SDS011;6523;49.758;6.120;2022-10-26T00:50:29;5.43;;;4.10;;
12910;SDS011;6523;49.758;6.120;2022-10-26T00:53:01;5.63;;;4.60;;
12910;SDS011;6523;49.758;6.120;2022-10-26T00:55:30;5.63;;;3.90;;
12910;SDS011;6523;49.758;6.120;2022-10-26T00:57:58;9.57;;;3.90;;
12910;SDS011;6523;49.758;6.120;2022-10-26T01:00:26;6.93;;;3.90;;
12910;SDS011;6523;49.758;6.120;2022-10-26T01:02:52;7.60;;;3.77;;
12910;SDS011;6523;49.758;6.120;2022-10-26T01:05:21;5.87;;;3.60;;
12910;SDS011;6523;49.758;6.120;2022-10-26T01:07:48;7.10;;;3.77;;
12910;SDS011;6523;49.758;6.120;2022-10-26T01:10:14;4.97;;;3.50;;
12910;SDS011;6523;49.758;6.120;2022-10-26T01:12:40;10.77;;;4.50;;
12910;SDS011;6523;49.758;6.120;2022-10-26T01:15:06;7.37;;;3.97;;
12910;SDS011;6523;49.758;6.120;2022-10-26T01:18:09;7.07;;;3.63;;
12910;SDS011;6523;49.758;6.120;2022-10-26T01:23:36;5.57;;;3.53;;
12910;SDS011;6523;49.758;6.120;2022-10-26T01:26:33;3.97;;;3.47;;
12910;SDS011;6523;49.758;6.120;2022-10-26T01:32:09;6.43;;;3.87;;
12910;SDS011;6523;49.758;6.120;2022-10-26T01:34:46;6.47;;;3.40;;
12910;SDS011;6523;49.758;6.120;2022-10-26T01:37:25;4.93;;;3.07;;
12910;SDS011;6523;49.758;6.120;2022-10-26T01:40:02;7.63;;;3.33;;
12910;SDS011;6523;49.758;6.120;2022-10-26T01:42:33;7.83;;;3.47;;
12910;SDS011;6523;49.758;6.120;2022-10-26T01:45:05;4.93;;;3.10;;
12910;SDS011;6523;49.758;6.120;2022-10-26T01:47:33;6.70;;;4.10;;
12910;SDS011;6523;49.758;6.120;2022-10-26T01:50:02;4.20;;;3.80;;
12910;SDS011;6523;49.758;6.120;2022-10-26T01:52:29;5.13;;;3.93;;
12910;SDS011;6523;49.758;6.120;2022-10-26T01:55:05;9.23;;;4.60;;
12910;SDS011;6523;49.758;6.120;2022-10-26T01:57:52;8.93;;;5.23;;
12910;SDS011;6523;49.758;6.120;2022-10-26T02:00:25;6.70;;;4.37;;
12910;SDS011;6523;49.758;6.120;2022-10-26T02:02:57;8.60;;;4.40;;
12910;SDS011;6523;49.758;6.120;2022-10-26T02:08:20;5.17;;;4.07;;
12910;SDS011;6523;49.758;6.120;2022-10-26T02:10:57;7.00;;;4.20;;
12910;SDS011;6523;49.758;6.120;2022-10-26T02:13:45;10.17;;;4.63;;
12910;SDS011;6523;49.758;6.120;2022-10-26T02:16:31;5.10;;;3.83;;
12910;SDS011;6523;49.758;6.120;2022-10-26T02:19:15;4.47;;;3.53;;
12910;SDS011;6523;49.758;6.120;2022-10-26T02:22:56;5.50;;;3.60;;
12910;SDS011;6523;49.758;6.120;2022-10-26T02:24:55;6.63;;;3.93;;
12910;SDS011;6523;49.758;6.120;2022-10-26T02:27:24;4.20;;;3.77;;
12910;SDS011;6523;49.758;6.120;2022-10-26T02:29:52;11.90;;;4.00;;
12910;SDS011;6523;49.758;6.120;2022-10-26T02:32:21;4.70;;;3.77;;
12910;SDS011;6523;49.758;6.120;2022-10-26T02:34:48;6.27;;;4.33;;
12910;SDS011;6523;49.758;6.120;2022-10-26T02:37:18;9.77;;;4.07;;
12910;SDS011;6523;49.758;6.120;2022-10-26T02:39:46;5.43;;;3.33;;
12910;SDS011;6523;49.758;6.120;2022-10-26T02:42:13;5.17;;;3.70;;
12910;SDS011;6523;49.758;6.120;2022-10-26T02:44:59;6.50;;;4.10;;
12910;SDS011;6523;49.758;6.120;2022-10-26T02:47:29;6.87;;;3.63;;
12910;SDS011;6523;49.758;6.120;2022-10-26T02:49:56;3.77;;;3.40;;
12910;SDS011;6523;49.758;6.120;2022-10-26T02:52:23;5.97;;;3.77;;
12910;SDS011;6523;49.758;6.120;2022-10-26T02:55:19;6.97;;;4.30;;
12910;SDS011;6523;49.758;6.120;2022-10-26T02:57:53;5.00;;;3.30;;
12910;SDS011;6523;49.758;6.120;2022-10-26T03:00:22;7.97;;;3.30;;
12910;SDS011;6523;49.758;6.120;2022-10-26T03:02:52;4.73;;;3.30;;
12910;SDS011;6523;49.758;6.120;2022-10-26T03:05:25;5.50;;;3.47;;
12910;SDS011;6523;49.758;6.120;2022-10-26T03:07:52;6.33;;;3.67;;
12910;SDS011;6523;49.758;6.120;2022-10-26T03:10:19;4.67;;;3.50;;
12910;SDS011;6523;49.758;6.120;2022-10-26T03:12:45;3.87;;;3.50;;
12910;SDS011;6523;49.758;6.120;2022-10-26T03:15:11;4.60;;;3.23;;
12910;SDS011;6523;49.758;6.120;2022-10-26T03:17:37;5.67;;;3.57;;
12910;SDS011;6523;49.758;6.120;2022-10-26T03:20:03;5.73;;;3.57;;
12910;SDS011;6523;49.758;6.120;2022-10-26T03:22:29;5.23;;;3.10;;
12910;SDS011;6523;49.758;6.120;2022-10-26T03:24:54;5.00;;;4.10;;
12910;SDS011;6523;49.758;6.120;2022-10-26T03:27:20;9.70;;;3.93;;
12910;SDS011;6523;49.758;6.120;2022-10-26T03:29:46;7.80;;;4.43;;
12910;SDS011;6523;49.758;6.120;2022-10-26T03:32:12;6.87;;;4.03;;
12910;SDS011;6523;49.758;6.120;2022-10-26T03:34:38;5.73;;;4.23;;
12910;SDS011;6523;49.758;6.120;2022-10-26T03:37:03;4.57;;;4.17;;
12910;SDS011;6523;49.758;6.120;2022-10-26T03:39:29;5.33;;;3.83;;
12910;SDS011;6523;49.758;6.120;2022-10-26T03:41:54;5.63;;;3.03;;
12910;SDS011;6523;49.758;6.120;2022-10-26T03:44:20;5.00;;;3.50;;
12910;SDS011;6523;49.758;6.120;2022-10-26T03:46:46;5.23;;;3.20;;
12910;SDS011;6523;49.758;6.120;2022-10-26T03:49:12;5.43;;;3.50;;
12910;SDS011;6523;49.758;6.120;2022-10-26T03:51:37;4.00;;;3.07;;
12910;SDS011;6523;49.758;6.120;2022-10-26T03:54:03;6.07;;;3.53;;
12910;SDS011;6523;49.758;6.120;2022-10-26T03:56:29;5.17;;;3.33;;
12910;SDS011;6523;49.758;6.120;2022-10-26T03:58:54;5.07;;;3.20;;
12910;SDS011;6523;49.758;6.120;2022-10-26T04:01:20;7.33;;;3.67;;
12910;SDS011;6523;49.758;6.120;2022-10-26T04:03:45;6.23;;;4.10;;
12910;SDS011;6523;49.758;6.120;2022-10-26T04:06:11;4.10;;;3.17;;
12910;SDS011;6523;49.758;6.120;2022-10-26T04:08:37;8.17;;;3.73;;
12910;SDS011;6523;49.758;6.120;2022-10-26T04:11:02;6.33;;;3.50;;
12910;SDS011;6523;49.758;6.120;2022-10-26T04:13:28;5.03;;;3.43;;
12910;SDS011;6523;49.758;6.120;2022-10-26T04:15:54;3.60;;;3.30;;
12910;SDS011;6523;49.758;6.120;2022-10-26T04:18:19;3.83;;;3.43;;
12910;SDS011;6523;49.758;6.120;2022-10-26T04:20:45;4.90;;;3.70;;
12910;SDS011;6523;49.758;6.120;2022-10-26T04:23:11;7.87;;;4.00;;
12910;SDS011;6523;49.758;6.120;2022-10-26T04:25:38;4.90;;;4.30;;
12910;SDS011;6523;49.758;6.120;2022-10-26T04:28:05;5.70;;;4.00;;
12910;SDS011;6523;49.758;6.120;2022-10-26T04:30:32;6.33;;;4.33;;
12910;SDS011;6523;49.758;6.120;2022-10-26T04:32:58;7.80;;;4.20;;
12910;SDS011;6523;49.758;6.120;2022-10-26T04:35:24;6.67;;;4.20;;
12910;SDS011;6523;49.758;6.120;2022-10-26T04:37:50;4.97;;;3.93;;
12910;SDS011;6523;49.758;6.120;2022-10-26T04:40:21;7.10;;;4.00;;
12910;SDS011;6523;49.758;6.120;2022-10-26T04:42:46;7.57;;;4.37;;
12910;SDS011;6523;49.758;6.120;2022-10-26T04:45:13;5.13;;;3.60;;
12910;SDS011;6523;49.758;6.120;2022-10-26T04:47:40;7.67;;;4.27;;
12910;SDS011;6523;49.758;6.120;2022-10-26T04:50:06;7.30;;;3.83;;
12910;SDS011;6523;49.758;6.120;2022-10-26T04:52:33;7.80;;;3.90;;
12910;SDS011;6523;49.758;6.120;2022-10-26T04:54:59;7.80;;;3.53;;
12910;SDS011;6523;49.758;6.120;2022-10-26T04:57:25;5.33;;;3.63;;
12910;SDS011;6523;49.758;6.120;2022-10-26T04:59:50;6.90;;;3.80;;
12910;SDS011;6523;49.758;6.120;2022-10-26T05:02:16;5.33;;;3.80;;
12910;SDS011;6523;49.758;6.120;2022-10-26T05:04:41;7.07;;;4.30;;
12910;SDS011;6523;49.758;6.120;2022-10-26T05:07:07;8.70;;;4.73;;
12910;SDS011;6523;49.758;6.120;2022-10-26T05:09:33;7.20;;;4.80;;
12910;SDS011;6523;49.758;6.120;2022-10-26T05:11:58;9.57;;;4.43;;
12910;SDS011;6523;49.758;6.120;2022-10-26T05:14:24;11.87;;;4.50;;
12910;SDS011;6523;49.758;6.120;2022-10-26T05:16:49;11.17;;;3.90;;
12910;SDS011;6523;49.758;6.120;2022-10-26T05:19:15;5.60;;;3.40;;
12910;SDS011;6523;49.758;6.120;2022-10-26T05:21:41;9.60;;;4.90;;
12910;SDS011;6523;49.758;6.120;2022-10-26T05:24:07;7.83;;;4.30;;
12910;SDS011;6523;49.758;6.120;2022-10-26T05:26:32;8.67;;;5.00;;
12910;SDS011;6523;49.758;6.120;2022-10-26T05:28:58;5.97;;;4.77;;
12910;SDS011;6523;49.758;6.120;2022-10-26T05:31:24;5.93;;;4.50;;
12910;SDS011;6523;49.758;6.120;2022-10-26T05:33:50;7.17;;;4.57;;
12910;SDS011;6523;49.758;6.120;2022-10-26T05:36:19;7.00;;;4.67;;
12910;SDS011;6523;49.758;6.120;2022-10-26T05:38:44;7.07;;;4.20;;
12910;SDS011;6523;49.758;6.120;2022-10-26T05:41:10;5.83;;;4.47;;
12910;SDS011;6523;49.758;6.120;2022-10-26T05:43:36;8.10;;;4.27;;
12910;SDS011;6523;49.758;6.120;2022-10-26T05:46:02;6.20;;;4.20;;
12910;SDS011;6523;49.758;6.120;2022-10-26T05:48:27;8.63;;;4.63;;
12910;SDS011;6523;49.758;6.120;2022-10-26T05:50:53;6.30;;;4.60;;
12910;SDS011;6523;49.758;6.120;2022-10-26T05:53:22;7.00;;;4.47;;
12910;SDS011;6523;49.758;6.120;2022-10-26T05:55:48;5.03;;;4.07;;
12910;SDS011;6523;49.758;6.120;2022-10-26T05:58:14;6.93;;;4.20;;
12910;SDS011;6523;49.758;6.120;2022-10-26T06:00:43;5.27;;;4.60;;
12910;SDS011;6523;49.758;6.120;2022-10-26T06:08:17;6.20;;;4.43;;
12910;SDS011;6523;49.758;6.120;2022-10-26T06:10:44;7.07;;;4.07;;
12910;SDS011;6523;49.758;6.120;2022-10-26T06:13:10;6.83;;;5.47;;
12910;SDS011;6523;49.758;6.120;2022-10-26T06:15:43;9.67;;;6.27;;
12910;SDS011;6523;49.758;6.120;2022-10-26T06:18:14;7.33;;;6.63;;
12910;SDS011;6523;49.758;6.120;2022-10-26T06:26:37;11.03;;;5.73;;
12910;SDS011;6523;49.758;6.120;2022-10-26T06:29:23;7.30;;;6.60;;
12910;SDS011;6523;49.758;6.120;2022-10-26T06:31:53;7.73;;;6.20;;
12910;SDS011;6523;49.758;6.120;2022-10-26T06:34:22;6.17;;;5.57;;
12910;SDS011;6523;49.758;6.120;2022-10-26T06:36:51;7.37;;;5.80;;
12910;SDS011;6523;49.758;6.120;2022-10-26T06:39:17;7.93;;;5.90;;
12910;SDS011;6523;49.758;6.120;2022-10-26T06:41:44;7.53;;;5.47;;
12910;SDS011;6523;49.758;6.120;2022-10-26T06:44:11;6.67;;;5.50;;
12910;SDS011;6523;49.758;6.120;2022-10-26T06:49:27;9.03;;;6.20;;
12910;SDS011;6523;49.758;6.120;2022-10-26T06:52:01;9.83;;;6.50;;
12910;SDS011;6523;49.758;6.120;2022-10-26T06:54:44;7.67;;;5.33;;
12910;SDS011;6523;49.758;6.120;2022-10-26T06:57:12;8.10;;;5.73;;
12910;SDS011;6523;49.758;6.120;2022-10-26T06:59:42;7.63;;;6.03;;
12910;SDS011;6523;49.758;6.120;2022-10-26T07:02:14;10.40;;;5.43;;
12910;SDS011;6523;49.758;6.120;2022-10-26T07:04:41;7.97;;;5.70;;
12910;SDS011;6523;49.758;6.120;2022-10-26T07:07:08;8.60;;;5.63;;
12910;SDS011;6523;49.758;6.120;2022-10-26T07:09:42;9.70;;;5.90;;
12910;SDS011;6523;49.758;6.120;2022-10-26T07:12:07;10.23;;;6.07;;
12910;SDS011;6523;49.758;6.120;2022-10-26T07:14:33;10.37;;;6.23;;
12910;SDS011;6523;49.758;6.120;2022-10-26T07:16:59;10.50;;;5.57;;
12910;SDS011;6523;49.758;6.120;2022-10-26T07:19:25;8.90;;;5.57;;
12910;SDS011;6523;49.758;6.120;2022-10-26T07:21:52;8.90;;;6.40;;
12910;SDS011;6523;49.758;6.120;2022-10-26T07:24:20;10.07;;;5.87;;
12910;SDS011;6523;49.758;6.120;2022-10-26T07:26:47;10.63;;;7.03;;
12910;SDS011;6523;49.758;6.120;2022-10-26T07:29:12;9.20;;;5.93;;
12910;SDS011;6523;49.758;6.120;2022-10-26T07:31:38;9.93;;;5.80;;
12910;SDS011;6523;49.758;6.120;2022-10-26T07:34:03;12.33;;;5.37;;
12910;SDS011;6523;49.758;6.120;2022-10-26T07:36:29;9.83;;;6.57;;
12910;SDS011;6523;49.758;6.120;2022-10-26T07:38:54;6.27;;;4.70;;
12910;SDS011;6523;49.758;6.120;2022-10-26T07:41:20;8.53;;;4.90;;
12910;SDS011;6523;49.758;6.120;2022-10-26T07:43:46;7.50;;;4.67;;
12910;SDS011;6523;49.758;6.120;2022-10-26T07:46:13;9.83;;;4.80;;
12910;SDS011;6523;49.758;6.120;2022-10-26T07:48:40;6.27;;;4.47;;
12910;SDS011;6523;49.758;6.120;2022-10-26T07:51:06;9.43;;;4.83;;
12910;SDS011;6523;49.758;6.120;2022-10-26T07:53:31;8.70;;;4.17;;
12910;SDS011;6523;49.758;6.120;2022-10-26T07:55:57;4.40;;;3.73;;
12910;SDS011;6523;49.758;6.120;2022-10-26T07:58:22;4.70;;;3.57;;
12910;SDS011;6523;49.758;6.120;2022-10-26T08:00:53;6.80;;;3.30;;
12910;SDS011;6523;49.758;6.120;2022-10-26T08:03:19;9.23;;;4.23;;
12910;SDS011;6523;49.758;6.120;2022-10-26T08:05:45;7.03;;;3.47;;
12910;SDS011;6523;49.758;6.120;2022-10-26T08:08:15;6.73;;;3.90;;
12910;SDS011;6523;49.758;6.120;2022-10-26T08:10:44;6.23;;;3.60;;
12910;SDS011;6523;49.758;6.120;2022-10-26T08:13:10;8.10;;;3.37;;
12910;SDS011;6523;49.758;6.120;2022-10-26T08:15:37;8.13;;;3.67;;
12910;SDS011;6523;49.758;6.120;2022-10-26T08:18:03;4.40;;;3.40;;
12910;SDS011;6523;49.758;6.120;2022-10-26T08:20:29;5.93;;;3.60;;
12910;SDS011;6523;49.758;6.120;2022-10-26T08:22:55;6.63;;;3.60;;
12910;SDS011;6523;49.758;6.120;2022-10-26T08:25:27;7.93;;;3.70;;
12910;SDS011;6523;49.758;6.120;2022-10-26T08:27:53;6.73;;;3.60;;
12910;SDS011;6523;49.758;6.120;2022-10-26T08:30:19;7.20;;;3.60;;
12910;SDS011;6523;49.758;6.120;2022-10-26T08:32:44;4.83;;;3.40;;
12910;SDS011;6523;49.758;6.120;2022-10-26T08:35:10;6.23;;;3.47;;
12910;SDS011;6523;49.758;6.120;2022-10-26T08:37:36;7.43;;;3.60;;
12910;SDS011;6523;49.758;6.120;2022-10-26T08:40:03;8.37;;;3.90;;
12910;SDS011;6523;49.758;6.120;2022-10-26T08:42:32;7.03;;;3.73;;
12910;SDS011;6523;49.758;6.120;2022-10-26T08:45:10;9.90;;;4.00;;
12910;SDS011;6523;49.758;6.120;2022-10-26T08:47:47;11.27;;;5.33;;
12910;SDS011;6523;49.758;6.120;2022-10-26T08:50:24;8.43;;;3.77;;
12910;SDS011;6523;49.758;6.120;2022-10-26T08:53:13;7.57;;;3.83;;
12910;SDS011;6523;49.758;6.120;2022-10-26T08:55:44;6.23;;;3.20;;
12910;SDS011;6523;49.758;6.120;2022-10-26T08:58:14;5.30;;;2.80;;
12910;SDS011;6523;49.758;6.120;2022-10-26T09:00:43;7.80;;;3.37;;
12910;SDS011;6523;49.758;6.120;2022-10-26T09:03:17;8.00;;;3.17;;
12910;SDS011;6523;49.758;6.120;2022-10-26T09:05:58;7.20;;;3.50;;
12910;SDS011;6523;49.758;6.120;2022-10-26T09:08:41;10.13;;;3.33;;
12910;SDS011;6523;49.758;6.120;2022-10-26T09:11:26;7.37;;;3.07;;
12910;SDS011;6523;49.758;6.120;2022-10-26T09:14:00;5.10;;;2.60;;
12910;SDS011;6523;49.758;6.120;2022-10-26T09:16:34;5.30;;;2.70;;
12910;SDS011;6523;49.758;6.120;2022-10-26T09:19:18;5.23;;;2.50;;
12910;SDS011;6523;49.758;6.120;2022-10-26T09:22:03;3.97;;;2.70;;
12910;SDS011;6523;49.758;6.120;2022-10-26T09:24:41;3.63;;;2.70;;
12910;SDS011;6523;49.758;6.120;2022-10-26T09:29:51;4.90;;;2.30;;
12910;SDS011;6523;49.758;6.120;2022-10-26T09:32:19;3.97;;;2.70;;
12910;SDS011;6523;49.758;6.120;2022-10-26T09:34:51;4.40;;;2.30;;
12910;SDS011;6523;49.758;6.120;2022-10-26T09:37:20;3.33;;;1.93;;
12910;SDS011;6523;49.758;6.120;2022-10-26T09:45:38;2.60;;;1.83;;
12910;SDS011;6523;49.758;6.120;2022-10-26T09:48:12;3.93;;;2.10;;
12910;SDS011;6523;49.758;6.120;2022-10-26T09:50:55;6.63;;;2.30;;
12910;SDS011;6523;49.758;6.120;2022-10-26T09:53:23;6.40;;;2.67;;
12910;SDS011;6523;49.758;6.120;2022-10-26T09:55:58;5.40;;;2.43;;
12910;SDS011;6523;49.758;6.120;2022-10-26T09:58:40;4.30;;;1.93;;
12910;SDS011;6523;49.758;6.120;2022-10-26T10:01:18;6.67;;;1.93;;
12910;SDS011;6523;49.758;6.120;2022-10-26T10:06:37;6.73;;;2.60;;
12910;SDS011;6523;49.758;6.120;2022-10-26T10:11:36;4.60;;;2.40;;
12910;SDS011;6523;49.758;6.120;2022-10-26T10:14:16;4.83;;;2.27;;
12910;SDS011;6523;49.758;6.120;2022-10-26T10:16:48;3.50;;;1.60;;
12910;SDS011;6523;49.758;6.120;2022-10-26T10:19:29;5.40;;;2.10;;
12910;SDS011;6523;49.758;6.120;2022-10-26T10:21:59;3.40;;;1.87;;
12910;SDS011;6523;49.758;6.120;2022-10-26T10:24:32;3.70;;;2.00;;
12910;SDS011;6523;49.758;6.120;2022-10-26T10:29:31;4.03;;;1.93;;
12910;SDS011;6523;49.758;6.120;2022-10-26T10:31:59;4.27;;;1.90;;
12910;SDS011;6523;49.758;6.120;2022-10-26T10:34:28;4.23;;;1.70;;
12910;SDS011;6523;49.758;6.120;2022-10-26T10:36:55;3.83;;;1.80;;
12910;SDS011;6523;49.758;6.120;2022-10-26T10:39:32;4.10;;;1.80;;
12910;SDS011;6523;49.758;6.120;2022-10-26T10:42:01;2.20;;;1.77;;
12910;SDS011;6523;49.758;6.120;2022-10-26T10:44:28;3.90;;;1.70;;
12910;SDS011;6523;49.758;6.120;2022-10-26T10:47:03;2.63;;;1.63;;
12910;SDS011;6523;49.758;6.120;2022-10-26T10:49:30;4.07;;;1.87;;
12910;SDS011;6523;49.758;6.120;2022-10-26T10:51:57;4.37;;;2.10;;
12910;SDS011;6523;49.758;6.120;2022-10-26T10:54:28;3.67;;;2.03;;
12910;SDS011;6523;49.758;6.120;2022-10-26T10:57:06;3.60;;;1.57;;
12910;SDS011;6523;49.758;6.120;2022-10-26T10:59:44;6.67;;;2.20;;
12910;SDS011;6523;49.758;6.120;2022-10-26T11:02:39;5.13;;;1.77;;
12910;SDS011;6523;49.758;6.120;2022-10-26T11:07:53;3.07;;;1.50;;
12910;SDS011;6523;49.758;6.120;2022-10-26T11:10:24;4.73;;;1.63;;
12910;SDS011;6523;49.758;6.120;2022-10-26T11:12:53;4.23;;;1.90;;
12910;SDS011;6523;49.758;6.120;2022-10-26T11:15:24;4.63;;;2.13;;
12910;SDS011;6523;49.758;6.120;2022-10-26T11:17:58;3.90;;;1.77;;
12910;SDS011;6523;49.758;6.120;2022-10-26T11:20:31;3.67;;;1.63;;
12910;SDS011;6523;49.758;6.120;2022-10-26T11:25:34;5.53;;;1.40;;
12910;SDS011;6523;49.758;6.120;2022-10-26T11:28:12;3.70;;;1.30;;
12910;SDS011;6523;49.758;6.120;2022-10-26T11:30:45;3.80;;;1.60;;
12910;SDS011;6523;49.758;6.120;2022-10-26T11:34:00;6.20;;;2.10;;
12910;SDS011;6523;49.758;6.120;2022-10-26T11:36:08;5.93;;;1.90;;
12910;SDS011;6523;49.758;6.120;2022-10-26T11:38:45;2.63;;;1.40;;
12910;SDS011;6523;49.758;6.120;2022-10-26T11:41:25;3.00;;;1.40;;
12910;SDS011;6523;49.758;6.120;2022-10-26T11:46:55;3.20;;;1.50;;
12910;SDS011;6523;49.758;6.120;2022-10-26T11:49:32;2.20;;;1.20;;
12910;SDS011;6523;49.758;6.120;2022-10-26T11:55:14;2.80;;;1.30;;
12910;SDS011;6523;49.758;6.120;2022-10-26T11:57:40;3.23;;;1.40;;
12910;SDS011;6523;49.758;6.120;2022-10-26T12:02:39;2.77;;;1.57;;
12910;SDS011;6523;49.758;6.120;2022-10-26T12:05:16;4.23;;;1.27;;
12910;SDS011;6523;49.758;6.120;2022-10-26T12:07:49;3.40;;;1.60;;
12910;SDS011;6523;49.758;6.120;2022-10-26T12:13:37;3.50;;;1.50;;
12910;SDS011;6523;49.758;6.120;2022-10-26T12:15:40;2.97;;;1.57;;
12910;SDS011;6523;49.758;6.120;2022-10-26T12:18:31;3.43;;;1.30;;
12910;SDS011;6523;49.758;6.120;2022-10-26T12:20:59;4.63;;;1.70;;
12910;SDS011;6523;49.758;6.120;2022-10-26T12:23:27;5.90;;;1.73;;
12910;SDS011;6523;49.758;6.120;2022-10-26T12:26:28;2.80;;;1.67;;
12910;SDS011;6523;49.758;6.120;2022-10-26T12:34:00;4.63;;;1.50;;
12910;SDS011;6523;49.758;6.120;2022-10-26T12:44:31;1.80;;;1.30;;
12910;SDS011;6523;49.758;6.120;2022-10-26T12:47:05;1.83;;;1.13;;
12910;SDS011;6523;49.758;6.120;2022-10-26T13:09:14;2.13;;;1.30;;
12910;SDS011;6523;49.758;6.120;2022-10-26T13:11:48;3.80;;;1.30;;
12910;SDS011;6523;49.758;6.120;2022-10-26T13:14:26;2.00;;;1.00;;
12910;SDS011;6523;49.758;6.120;2022-10-26T13:17:02;0.87;;;0.80;;
12910;SDS011;6523;49.758;6.120;2022-10-26T13:19:30;3.63;;;1.50;;
12910;SDS011;6523;49.758;6.120;2022-10-26T13:21:58;2.83;;;0.90;;
12910;SDS011;6523;49.758;6.120;2022-10-26T13:24:25;3.63;;;1.00;;
12910;SDS011;6523;49.758;6.120;2022-10-26T13:29:28;3.60;;;1.00;;
12910;SDS011;6523;49.758;6.120;2022-10-26T13:31:54;3.77;;;1.17;;
12910;SDS011;6523;49.758;6.120;2022-10-26T13:34:21;1.67;;;0.97;;
12910;SDS011;6523;49.758;6.120;2022-10-26T13:39:37;1.80;;;1.10;;
12910;SDS011;6523;49.758;6.120;2022-10-26T13:42:06;1.97;;;1.10;;
12910;SDS011;6523;49.758;6.120;2022-10-26T13:47:04;1.40;;;0.97;;
12910;SDS011;6523;49.758;6.120;2022-10-26T13:49:57;2.40;;;0.80;;
12910;SDS011;6523;49.758;6.120;2022-10-26T13:52:31;4.77;;;1.20;;
12910;SDS011;6523;49.758;6.120;2022-10-26T13:55:08;2.40;;;0.87;;
12910;SDS011;6523;49.758;6.120;2022-10-26T13:57:54;2.90;;;0.87;;
12910;SDS011;6523;49.758;6.120;2022-10-26T14:00:30;3.17;;;1.03;;
12910;SDS011;6523;49.758;6.120;2022-10-26T14:02:55;1.60;;;0.70;;
12910;SDS011;6523;49.758;6.120;2022-10-26T14:05:21;4.57;;;1.00;;
12910;SDS011;6523;49.758;6.120;2022-10-26T14:07:48;1.67;;;0.70;;
12910;SDS011;6523;49.758;6.120;2022-10-26T14:10:26;1.70;;;0.90;;
12910;SDS011;6523;49.758;6.120;2022-10-26T14:13:05;2.90;;;1.00;;
12910;SDS011;6523;49.758;6.120;2022-10-26T14:15:41;2.30;;;1.00;;
12910;SDS011;6523;49.758;6.120;2022-10-26T14:18:11;2.20;;;0.83;;
12910;SDS011;6523;49.758;6.120;2022-10-26T14:21:03;3.57;;;0.87;;
12910;SDS011;6523;49.758;6.120;2022-10-26T14:23:34;2.77;;;1.10;;
12910;SDS011;6523;49.758;6.120;2022-10-26T14:26:02;1.83;;;0.77;;
12910;SDS011;6523;49.758;6.120;2022-10-26T14:28:30;4.93;;;1.00;;
12910;SDS011;6523;49.758;6.120;2022-10-26T14:31:10;3.63;;;1.30;;
12910;SDS011;6523;49.758;6.120;2022-10-26T14:33:36;2.03;;;1.10;;
12910;SDS011;6523;49.758;6.120;2022-10-26T14:36:02;2.83;;;1.10;;
12910;SDS011;6523;49.758;6.120;2022-10-26T14:38:28;2.40;;;1.10;;
12910;SDS011;6523;49.758;6.120;2022-10-26T14:41:01;2.23;;;0.90;;
12910;SDS011;6523;49.758;6.120;2022-10-26T14:43:26;0.97;;;0.87;;
12910;SDS011;6523;49.758;6.120;2022-10-26T14:45:52;3.13;;;0.90;;
12910;SDS011;6523;49.758;6.120;2022-10-26T14:51:00;4.27;;;0.80;;
12910;SDS011;6523;49.758;6.120;2022-10-26T14:53:34;1.83;;;1.10;;
12910;SDS011;6523;49.758;6.120;2022-10-26T14:56:03;1.70;;;1.00;;
12910;SDS011;6523;49.758;6.120;2022-10-26T14:58:40;2.20;;;0.70;;
12910;SDS011;6523;49.758;6.120;2022-10-26T15:01:14;2.70;;;0.90;;
12910;SDS011;6523;49.758;6.120;2022-10-26T15:03:41;2.27;;;1.10;;
12910;SDS011;6523;49.758;6.120;2022-10-26T15:08:55;1.57;;;0.97;;
12910;SDS011;6523;49.758;6.120;2022-10-26T15:11:22;1.63;;;0.80;;
12910;SDS011;6523;49.758;6.120;2022-10-26T15:13:48;3.47;;;1.13;;
12910;SDS011;6523;49.758;6.120;2022-10-26T15:16:17;3.03;;;0.90;;
12910;SDS011;6523;49.758;6.120;2022-10-26T15:18:44;1.50;;;1.17;;
12910;SDS011;6523;49.758;6.120;2022-10-26T15:23:49;1.63;;;0.77;;
12910;SDS011;6523;49.758;6.120;2022-10-26T15:26:16;4.67;;;1.43;;
12910;SDS011;6523;49.758;6.120;2022-10-26T15:28:42;2.60;;;1.20;;
12910;SDS011;6523;49.758;6.120;2022-10-26T15:33:39;1.43;;;0.90;;
12910;SDS011;6523;49.758;6.120;2022-10-26T15:38:35;2.93;;;1.17;;
12910;SDS011;6523;49.758;6.120;2022-10-26T15:41:05;2.00;;;1.03;;
12910;SDS011;6523;49.758;6.120;2022-10-26T15:43:45;2.13;;;0.97;;
12910;SDS011;6523;49.758;6.120;2022-10-26T15:46:12;1.40;;;1.00;;
12910;SDS011;6523;49.758;6.120;2022-10-26T15:48:39;3.07;;;1.50;;
12910;SDS011;6523;49.758;6.120;2022-10-26T15:51:05;8.20;;;4.57;;
12910;SDS011;6523;49.758;6.120;2022-10-26T15:53:31;15.27;;;9.20;;
12910;SDS011;6523;49.758;6.120;2022-10-26T15:55:57;8.03;;;4.60;;
12910;SDS011;6523;49.758;6.120;2022-10-26T15:58:30;6.40;;;2.97;;
12910;SDS011;6523;49.758;6.120;2022-10-26T16:00:55;8.57;;;5.20;;
12910;SDS011;6523;49.758;6.120;2022-10-26T16:03:22;15.60;;;10.27;;
12910;SDS011;6523;49.758;6.120;2022-10-26T16:05:50;4.83;;;2.47;;
12910;SDS011;6523;49.758;6.120;2022-10-26T16:08:21;3.63;;;2.20;;
12910;SDS011;6523;49.758;6.120;2022-10-26T16:10:46;4.27;;;2.20;;
12910;SDS011;6523;49.758;6.120;2022-10-26T16:13:12;6.23;;;1.40;;
12910;SDS011;6523;49.758;6.120;2022-10-26T16:15:39;2.50;;;1.50;;
12910;SDS011;6523;49.758;6.120;2022-10-26T16:18:05;2.50;;;1.27;;
12910;SDS011;6523;49.758;6.120;2022-10-26T16:20:31;2.70;;;1.37;;
12910;SDS011;6523;49.758;6.120;2022-10-26T16:22:56;1.40;;;1.10;;
12910;SDS011;6523;49.758;6.120;2022-10-26T16:25:25;3.07;;;1.23;;
12910;SDS011;6523;49.758;6.120;2022-10-26T16:27:51;3.00;;;1.30;;
12910;SDS011;6523;49.758;6.120;2022-10-26T16:30:19;1.60;;;1.20;;
12910;SDS011;6523;49.758;6.120;2022-10-26T16:32:45;3.83;;;1.60;;
12910;SDS011;6523;49.758;6.120;2022-10-26T16:35:11;3.00;;;1.40;;
12910;SDS011;6523;49.758;6.120;2022-10-26T16:37:37;5.70;;;1.63;;
12910;SDS011;6523;49.758;6.120;2022-10-26T16:40:03;3.70;;;1.40;;
12910;SDS011;6523;49.758;6.120;2022-10-26T16:42:30;4.70;;;1.33;;
12910;SDS011;6523;49.758;6.120;2022-10-26T16:44:56;2.90;;;1.43;;
12910;SDS011;6523;49.758;6.120;2022-10-26T16:47:22;5.00;;;1.33;;
12910;SDS011;6523;49.758;6.120;2022-10-26T16:49:48;2.00;;;1.40;;
12910;SDS011;6523;49.758;6.120;2022-10-26T16:52:13;2.70;;;1.20;;
12910;SDS011;6523;49.758;6.120;2022-10-26T16:54:39;11.67;;;2.03;;
12910;SDS011;6523;49.758;6.120;2022-10-26T16:57:05;5.43;;;1.50;;
12910;SDS011;6523;49.758;6.120;2022-10-26T16:59:31;2.63;;;1.37;;
12910;SDS011;6523;49.758;6.120;2022-10-26T17:01:56;4.40;;;1.63;;
12910;SDS011;6523;49.758;6.120;2022-10-26T17:04:22;5.20;;;1.57;;
12910;SDS011;6523;49.758;6.120;2022-10-26T17:06:48;5.30;;;1.60;;